createdAt,value
2023-02-24T00:00:32.645Z,6.87
2023-02-24T00:03:37.739Z,5.97
2023-02-24T00:09:44.806Z,6.53
2023-02-24T00:12:49.896Z,4.63
2023-02-24T00:16:03.049Z,4.70
2023-02-24T00:19:07.652Z,6.80
2023-02-24T00:22:10.317Z,4.75
2023-02-24T00:25:13.033Z,3.03
2023-02-24T00:28:15.544Z,7.47
2023-02-24T00:31:20.586Z,5.77
2023-02-24T00:34:23.726Z,1.83
2023-02-24T00:37:26.052Z,1.67
2023-02-24T00:40:30.532Z,6.30
2023-02-24T00:43:37.406Z,2.53
2023-02-24T00:46:53.835Z,5.97
2023-02-24T00:49:56.788Z,4.77
2023-02-24T00:52:58.968Z,14.00
2023-02-24T00:56:02.328Z,7.83
2023-02-24T00:59:04.772Z,7.33
2023-02-24T01:02:12.925Z,4.23
2023-02-24T01:05:32.632Z,6.33
2023-02-24T01:08:40.321Z,5.23
2023-02-24T01:12:22.561Z,6.82
2023-02-24T01:15:25.943Z,4.47
2023-02-24T01:18:31.327Z,7.70
2023-02-24T01:21:33.756Z,3.50
2023-02-24T01:24:43.511Z,4.43
2023-02-24T01:27:46.885Z,1.47
2023-02-24T01:30:49.343Z,4.10
2023-02-24T01:33:52.377Z,7.53
2023-02-24T01:36:54.892Z,9.87
2023-02-24T01:39:57.469Z,4.53
2023-02-24T01:42:59.847Z,5.93
2023-02-24T01:46:02.029Z,3.47
2023-02-24T01:49:13.469Z,7.47
2023-02-24T01:52:20.754Z,3.00
2023-02-24T01:55:29.349Z,3.23
2023-02-24T01:58:39.634Z,5.17
2023-02-24T02:01:46.192Z,8.40
2023-02-24T02:05:03.926Z,3.67
2023-02-24T02:08:09.211Z,3.57
2023-02-24T02:11:15.309Z,3.27
2023-02-24T02:14:21.902Z,2.17
2023-02-24T02:17:51.454Z,3.17
2023-02-24T02:21:15.421Z,4.37
2023-02-24T02:24:42.138Z,6.23
2023-02-24T02:28:11.410Z,3.47
2023-02-24T02:31:23.114Z,6.20
2023-02-24T02:34:35.932Z,5.30
2023-02-24T02:38:03.405Z,3.90
2023-02-24T02:41:30.707Z,4.73
2023-02-24T02:45:07.884Z,4.00
2023-02-24T02:48:22.065Z,3.73
2023-02-24T02:51:38.971Z,4.97
2023-02-24T02:54:56.370Z,4.90
2023-02-24T02:58:01.829Z,4.13
2023-02-24T03:01:07.436Z,2.90
2023-02-24T03:04:23.074Z,2.70
2023-02-24T03:07:31.442Z,3.97
2023-02-24T03:10:34.573Z,5.93
2023-02-24T03:13:41.352Z,7.83
2023-02-24T03:16:52.216Z,4.10
2023-02-24T03:20:20.244Z,4.07
2023-02-24T03:23:31.132Z,2.70
2023-02-24T03:26:47.108Z,5.80
2023-02-24T03:33:20.424Z,5.90
2023-02-24T03:36:23.385Z,12.50
2023-02-24T03:39:25.946Z,5.67
2023-02-24T03:42:34.016Z,2.97
2023-02-24T03:45:41.084Z,7.27
2023-02-24T03:48:51.290Z,5.37
2023-02-24T03:52:21.703Z,6.13
2023-02-24T03:56:02.049Z,8.23
2023-02-24T03:59:16.850Z,3.30
2023-02-24T04:02:25.476Z,4.75
2023-02-24T04:05:30.154Z,2.53
2023-02-24T04:08:42.578Z,5.53
2023-02-24T04:11:49.858Z,2.57
2023-02-24T04:14:57.112Z,4.63
2023-02-24T04:18:03.469Z,2.97
2023-02-24T04:21:08.036Z,7.00
2023-02-24T04:24:16.026Z,10.03
2023-02-24T04:27:19.944Z,5.33
2023-02-24T04:30:24.313Z,3.70
2023-02-24T04:33:26.715Z,5.00
2023-02-24T04:36:30.299Z,2.53
2023-02-24T04:39:32.965Z,4.20
2023-02-24T04:42:37.725Z,3.03
2023-02-24T04:45:40.460Z,6.28
2023-02-24T04:48:42.668Z,4.13
2023-02-24T04:51:45.252Z,4.43
2023-02-24T04:54:48.280Z,2.73
2023-02-24T04:57:53.787Z,2.50
2023-02-24T05:00:56.654Z,2.50
2023-02-24T05:04:01.853Z,3.13
2023-02-24T05:07:04.110Z,3.47
2023-02-24T05:10:07.471Z,3.87
2023-02-24T05:13:22.057Z,5.30
2023-02-24T05:16:24.310Z,5.30
2023-02-24T05:19:45.962Z,4.27
2023-02-24T05:22:54.077Z,4.83
2023-02-24T05:25:56.368Z,3.73
2023-02-24T05:29:00.012Z,4.63
2023-02-24T05:32:04.609Z,5.43
2023-02-24T05:38:10.114Z,4.73
2023-02-24T05:41:18.485Z,3.10
2023-02-24T05:44:23.944Z,11.10
2023-02-24T05:47:27.178Z,4.00
2023-02-24T05:50:29.414Z,5.43
2023-02-24T05:53:31.502Z,2.67
2023-02-24T05:56:35.727Z,8.67
2023-02-24T05:59:39.814Z,4.78
2023-02-24T06:02:49.581Z,3.17
2023-02-24T06:05:54.948Z,12.00
2023-02-24T06:09:02.074Z,6.10
2023-02-24T06:12:04.324Z,8.48
2023-02-24T06:15:08.153Z,8.47
2023-02-24T06:18:11.789Z,8.02
2023-02-24T06:21:13.979Z,5.87
2023-02-24T06:24:18.205Z,7.50
2023-02-24T06:27:21.895Z,5.30
2023-02-24T06:30:25.332Z,4.73
2023-02-24T06:33:27.546Z,6.80
2023-02-24T06:36:29.662Z,6.00
2023-02-24T06:39:34.965Z,3.30
2023-02-24T06:42:39.402Z,4.67
2023-02-24T06:45:41.611Z,7.90
2023-02-24T06:48:45.140Z,9.50
2023-02-24T06:51:48.836Z,6.97
2023-02-24T06:54:52.594Z,9.90
2023-02-24T06:57:59.522Z,7.97
2023-02-24T07:01:02.861Z,9.67
2023-02-24T07:04:11.825Z,10.23
2023-02-24T07:07:14.653Z,10.00
2023-02-24T07:10:18.130Z,11.13
2023-02-24T07:13:20.369Z,5.17
2023-02-24T07:16:28.991Z,12.13
2023-02-24T07:19:32.560Z,14.80
2023-02-24T07:22:34.725Z,7.07
2023-02-24T07:25:36.972Z,7.00
2023-02-24T07:28:41.679Z,9.13
2023-02-24T07:31:43.933Z,15.45
2023-02-24T07:34:46.199Z,8.03
2023-02-24T07:37:48.765Z,7.83
2023-02-24T07:40:51.161Z,8.40
2023-02-24T07:43:55.133Z,11.43
2023-02-24T07:46:59.479Z,12.60
2023-02-24T07:50:03.141Z,13.00
2023-02-24T07:53:05.936Z,10.90
2023-02-24T07:56:19.084Z,10.13
2023-02-24T07:59:22.235Z,11.73
2023-02-24T08:02:24.813Z,13.63
2023-02-24T08:05:27.122Z,4.20
2023-02-24T08:08:29.477Z,9.73
2023-02-24T08:11:35.947Z,19.97
2023-02-24T08:14:44.948Z,13.50
2023-02-24T08:17:51.854Z,25.15
2023-02-24T08:20:54.426Z,24.80
2023-02-24T08:23:56.613Z,26.92
2023-02-24T08:27:05.552Z,14.65
2023-02-24T08:30:23.705Z,13.20
2023-02-24T08:33:30.345Z,16.90
2023-02-24T08:36:35.495Z,12.80
2023-02-24T08:39:37.708Z,14.57
2023-02-24T08:42:40.085Z,14.68
2023-02-24T08:45:52.198Z,8.90
2023-02-24T08:49:01.071Z,6.47
2023-02-24T08:52:07.368Z,5.35
2023-02-24T08:55:10.848Z,12.10
2023-02-24T08:58:18.431Z,9.80
2023-02-24T09:02:04.246Z,4.43
2023-02-24T09:05:14.006Z,9.20
2023-02-24T09:08:16.789Z,7.55
2023-02-24T09:11:23.198Z,9.55
2023-02-24T09:14:29.571Z,9.40
2023-02-24T09:17:50.417Z,5.57
2023-02-24T09:21:18.892Z,7.53
2023-02-24T09:24:30.207Z,9.77
2023-02-24T09:27:32.360Z,12.20
2023-02-24T09:30:39.681Z,10.05
2023-02-24T09:33:42.442Z,5.07
2023-02-24T09:37:01.659Z,7.82
2023-02-24T09:40:15.949Z,5.72
2023-02-24T09:43:28.062Z,6.50
2023-02-24T09:46:39.877Z,13.93
2023-02-24T09:49:46.739Z,6.93
2023-02-24T09:52:55.534Z,13.18
2023-02-24T09:56:06.891Z,10.07
2023-02-24T09:59:27.908Z,11.88
2023-02-24T10:02:46.387Z,7.90
2023-02-24T10:05:59.159Z,15.13
2023-02-24T10:09:36.952Z,7.78
2023-02-24T10:12:40.539Z,20.42
2023-02-24T10:15:57.573Z,18.45
2023-02-24T10:19:17.126Z,9.13
2023-02-24T10:22:28.603Z,6.75
2023-02-24T10:25:40.048Z,9.65
2023-02-24T10:29:09.273Z,11.18
2023-02-24T10:32:36.581Z,13.90
2023-02-24T10:35:39.077Z,14.20
2023-02-24T10:38:41.284Z,7.15
2023-02-24T10:41:46.309Z,6.13
2023-02-24T10:45:01.955Z,8.05
2023-02-24T10:48:07.565Z,5.38
2023-02-24T10:51:20.648Z,11.57
2023-02-24T10:54:44.919Z,8.50
2023-02-24T10:57:58.889Z,7.25
2023-02-24T11:01:13.622Z,11.40
2023-02-24T11:04:33.511Z,9.35
2023-02-24T11:07:48.355Z,12.85
2023-02-24T11:14:21.333Z,11.18
2023-02-24T11:17:28.092Z,14.77
2023-02-24T11:20:48.612Z,12.50
2023-02-24T11:23:58.723Z,15.18
2023-02-24T11:27:02.901Z,10.38
2023-02-24T11:30:43.503Z,16.08
2023-02-24T11:34:13.578Z,8.68
2023-02-24T11:37:51.457Z,9.13
2023-02-24T11:41:05.519Z,6.28
2023-02-24T11:44:28.670Z,5.53
2023-02-24T11:47:50.888Z,5.70
2023-02-24T11:51:16.378Z,3.95
2023-02-24T11:54:18.755Z,21.27
2023-02-24T11:57:29.313Z,18.77
2023-02-24T12:00:37.469Z,10.27
2023-02-24T12:04:01.439Z,11.57
2023-02-24T12:07:09.885Z,9.00
2023-02-24T12:10:32.520Z,9.47
2023-02-24T12:14:05.145Z,8.97
2023-02-24T12:17:18.628Z,13.27
2023-02-24T12:20:42.580Z,6.23
2023-02-24T12:23:46.942Z,3.13
2023-02-24T12:27:12.646Z,1.67
2023-02-24T12:30:49.223Z,2.55
2023-02-24T12:34:27.773Z,3.37
2023-02-24T12:37:51.230Z,3.07
2023-02-24T12:41:15.585Z,3.67
2023-02-24T12:44:55.144Z,3.53
2023-02-24T12:48:24.140Z,1.40
2023-02-24T12:51:40.534Z,1.53
2023-02-24T12:55:01.143Z,7.80
2023-02-24T12:58:14.005Z,4.53
2023-02-24T13:01:28.406Z,5.57
2023-02-24T13:04:49.042Z,2.80
2023-02-24T13:08:09.682Z,6.40
2023-02-24T13:11:23.300Z,6.40
2023-02-24T13:14:37.465Z,7.03
2023-02-24T13:17:48.221Z,1.92
2023-02-24T13:21:04.016Z,5.50
2023-02-24T13:24:06.426Z,5.83
2023-02-24T13:27:17.256Z,4.10
2023-02-24T13:30:45.217Z,3.83
2023-02-24T13:33:48.743Z,2.17
2023-02-24T13:36:51.355Z,15.17
2023-02-24T13:39:55.813Z,9.40
2023-02-24T13:43:00.285Z,7.30
2023-02-24T13:46:16.386Z,6.38
2023-02-24T13:49:23.056Z,3.53
2023-02-24T13:52:34.644Z,8.10
2023-02-24T13:55:58.446Z,3.20
2023-02-24T13:59:19.317Z,4.20
2023-02-24T14:02:30.428Z,5.83
2023-02-24T14:05:35.691Z,1.90
2023-02-24T14:08:44.307Z,4.70
2023-02-24T14:11:46.561Z,4.53
2023-02-24T14:14:49.540Z,4.00
2023-02-24T14:18:03.219Z,9.47
2023-02-24T14:21:05.561Z,10.70
2023-02-24T14:24:13.378Z,5.47
2023-02-24T14:27:26.684Z,10.80
2023-02-24T14:30:40.247Z,5.10
2023-02-24T14:33:45.157Z,7.43
2023-02-24T14:36:49.439Z,9.03
2023-02-24T14:39:57.365Z,6.50
2023-02-24T14:43:00.472Z,8.10
2023-02-24T14:46:06.216Z,9.07
2023-02-24T14:49:19.547Z,3.33
2023-02-24T14:52:46.532Z,3.13
2023-02-24T14:55:51.904Z,10.37
2023-02-24T14:59:22.258Z,4.83
2023-02-24T15:02:31.073Z,6.83
2023-02-24T15:05:33.734Z,5.13
2023-02-24T15:08:41.504Z,10.20
2023-02-24T15:11:43.971Z,3.80
2023-02-24T15:14:57.060Z,6.33
2023-02-24T15:18:09.309Z,9.77
2023-02-24T15:21:40.360Z,9.17
2023-02-24T15:24:42.595Z,11.27
2023-02-24T15:27:59.774Z,4.10
2023-02-24T15:31:05.046Z,13.47
2023-02-24T15:34:20.836Z,4.27
2023-02-24T15:37:24.694Z,1.23
2023-02-24T15:40:28.255Z,4.67
2023-02-24T15:43:38.770Z,4.87
2023-02-24T15:46:41.160Z,6.20
2023-02-24T15:49:43.482Z,3.97
2023-02-24T15:52:45.777Z,3.80
2023-02-24T15:55:47.941Z,9.00
2023-02-24T15:58:50.235Z,5.27
2023-02-24T16:01:52.620Z,6.17
2023-02-24T16:04:54.908Z,11.67
2023-02-24T16:07:57.384Z,2.00
2023-02-24T16:11:00.277Z,1.30
2023-02-24T16:14:02.618Z,4.07
2023-02-24T16:17:11.206Z,4.23
2023-02-24T16:20:18.370Z,2.83
2023-02-24T16:23:26.136Z,5.53
2023-02-24T16:26:28.720Z,14.33
2023-02-24T16:29:31.944Z,8.30
2023-02-24T16:32:34.354Z,6.83
2023-02-24T16:35:39.078Z,4.97
2023-02-24T16:38:43.480Z,3.78
2023-02-24T16:41:45.971Z,4.97
2023-02-24T16:44:51.324Z,9.40
2023-02-24T16:47:57.796Z,6.70
2023-02-24T16:51:00.557Z,3.43
2023-02-24T16:54:03.823Z,6.73
2023-02-24T16:57:06.304Z,1.13
2023-02-24T17:00:10.219Z,1.83
2023-02-24T17:03:27.262Z,1.80
2023-02-24T17:06:29.838Z,6.03
2023-02-24T17:09:33.744Z,4.17
2023-02-24T17:12:36.242Z,2.73
2023-02-24T17:15:39.054Z,2.40
2023-02-24T17:18:41.391Z,2.40
2023-02-24T17:21:53.850Z,4.50
2023-02-24T17:24:56.195Z,3.53
2023-02-24T17:27:59.144Z,4.17
2023-02-24T17:31:01.485Z,8.10
2023-02-24T17:34:06.219Z,6.00
2023-02-24T17:37:08.546Z,2.65
2023-02-24T17:40:11.834Z,1.47
2023-02-24T17:43:14.249Z,4.53
2023-02-24T17:46:16.515Z,3.30
2023-02-24T17:49:18.786Z,2.47
2023-02-24T17:52:21.223Z,5.33
2023-02-24T17:55:24.621Z,3.50
2023-02-24T17:58:26.741Z,4.07
2023-02-24T18:01:29.218Z,11.20
2023-02-24T18:04:31.934Z,2.37
2023-02-24T18:07:37.764Z,4.07
2023-02-24T18:10:40.212Z,1.70
2023-02-24T18:13:42.389Z,3.80
2023-02-24T18:16:44.894Z,2.10
2023-02-24T18:19:48.233Z,7.27
2023-02-24T18:22:50.371Z,1.33
2023-02-24T18:25:52.500Z,2.33
2023-02-24T18:28:54.900Z,1.73
2023-02-24T18:31:57.770Z,2.03
2023-02-24T18:35:00.216Z,2.67
2023-02-24T18:38:03.069Z,3.97
2023-02-24T18:41:11.610Z,1.17
2023-02-24T18:44:13.896Z,2.60
2023-02-24T18:47:16.102Z,5.30
2023-02-24T18:50:19.076Z,1.60
2023-02-24T18:53:23.329Z,1.17
2023-02-24T18:56:27.380Z,1.50
2023-02-24T18:59:29.717Z,2.25
2023-02-24T19:02:32.134Z,2.50
2023-02-24T19:05:38.832Z,3.40
2023-02-24T19:08:42.740Z,4.90
2023-02-24T19:11:45.113Z,2.77
2023-02-24T19:14:51.786Z,2.20
2023-02-24T19:17:53.901Z,2.10
2023-02-24T19:20:56.226Z,1.37
2023-02-24T19:24:08.403Z,4.30
2023-02-24T19:27:10.672Z,3.43
2023-02-24T19:30:12.986Z,4.23
2023-02-24T19:33:15.542Z,3.10
2023-02-24T19:36:17.658Z,1.60
2023-02-24T19:39:20.346Z,4.90
2023-02-24T19:42:22.526Z,2.80
2023-02-24T19:45:29.454Z,2.30
2023-02-24T19:48:35.749Z,2.97
2023-02-24T19:51:38.020Z,2.73
2023-02-24T19:54:40.250Z,4.47
2023-02-24T19:57:42.433Z,5.53
2023-02-24T20:00:44.608Z,3.83
2023-02-24T20:03:46.856Z,3.83
2023-02-24T20:06:49.136Z,5.13
2023-02-24T20:09:51.397Z,6.97
2023-02-24T20:12:54.398Z,6.30
2023-02-24T20:16:12.280Z,5.97
2023-02-24T20:19:18.259Z,8.30
2023-02-24T20:22:21.315Z,10.82
2023-02-24T20:25:24.002Z,7.13
2023-02-24T20:28:27.406Z,6.10
2023-02-24T20:31:30.342Z,9.90
2023-02-24T20:34:37.797Z,7.97
2023-02-24T20:37:40.204Z,13.33
2023-02-24T20:40:42.902Z,12.07
2023-02-24T20:43:45.041Z,12.07
2023-02-24T20:46:47.511Z,11.80
2023-02-24T20:49:52.383Z,13.47
2023-02-24T20:52:55.333Z,11.03
2023-02-24T20:56:05.960Z,12.13
2023-02-24T20:59:12.605Z,11.93
2023-02-24T21:02:14.837Z,12.83
2023-02-24T21:05:28.342Z,9.23
2023-02-24T21:08:30.566Z,7.90
2023-02-24T21:11:33.673Z,12.23
2023-02-24T21:14:35.814Z,9.90
2023-02-24T21:17:39.667Z,8.50
2023-02-24T21:20:41.779Z,13.30
2023-02-24T21:23:44.957Z,9.60
2023-02-24T21:26:47.631Z,10.23
2023-02-24T21:29:49.874Z,8.00
2023-02-24T21:32:52.086Z,8.60
2023-02-24T21:36:03.557Z,10.93
2023-02-24T21:39:06.803Z,11.00
2023-02-24T21:42:10.190Z,12.93
2023-02-24T21:45:14.019Z,22.43
2023-02-24T21:48:17.200Z,14.82
2023-02-24T21:51:19.510Z,10.97
2023-02-24T21:54:22.281Z,12.57
2023-02-24T21:57:24.709Z,15.77
2023-02-24T22:00:28.930Z,14.87
2023-02-24T22:03:31.321Z,16.70
2023-02-24T22:06:35.791Z,18.97
2023-02-24T22:09:38.389Z,14.82
2023-02-24T22:12:40.914Z,17.67
2023-02-24T22:15:43.063Z,13.77
2023-02-24T22:18:46.423Z,12.53
2023-02-24T22:21:48.579Z,15.53
2023-02-24T22:24:51.757Z,14.00
2023-02-24T22:27:54.102Z,12.37
2023-02-24T22:30:57.954Z,15.13
2023-02-24T22:34:01.038Z,17.83
2023-02-24T22:37:03.818Z,12.93
2023-02-24T22:40:06.782Z,11.63
2023-02-24T22:43:10.226Z,16.85
2023-02-24T22:46:18.806Z,15.27
2023-02-24T22:49:21.012Z,17.30
2023-02-24T22:52:23.175Z,18.07
2023-02-24T22:55:25.501Z,15.30
2023-02-24T22:58:27.738Z,14.33
2023-02-24T23:01:33.475Z,12.83
2023-02-24T23:04:36.409Z,14.90
2023-02-24T23:07:38.521Z,11.97
2023-02-24T23:10:40.609Z,10.47
2023-02-24T23:13:44.910Z,10.00
2023-02-24T23:16:54.821Z,12.67
2023-02-24T23:19:58.858Z,14.97
2023-02-24T23:23:01.990Z,16.67
2023-02-24T23:26:05.601Z,10.27
2023-02-24T23:29:08.662Z,11.50
2023-02-24T23:32:10.842Z,12.47
2023-02-24T23:35:14.366Z,10.57
2023-02-24T23:38:17.664Z,9.03
2023-02-24T23:41:20.402Z,6.70
2023-02-24T23:44:22.569Z,9.07
2023-02-24T23:47:24.760Z,6.13
2023-02-24T23:50:27.022Z,7.17
2023-02-24T23:53:29.135Z,11.27
2023-02-24T23:56:33.659Z,7.50
2023-02-24T23:59:37.773Z,7.80
